createdAt,value
2018-09-14T00:01:58.637Z,27.73
2018-09-14T00:04:26.293Z,29.63
2018-09-14T00:06:53.865Z,29.67
2018-09-14T00:09:21.433Z,29.27
2018-09-14T00:11:48.982Z,26.70
2018-09-14T00:14:16.532Z,27.90
2018-09-14T00:16:44.083Z,25.83
2018-09-14T00:19:11.642Z,27.90
2018-09-14T00:21:39.232Z,28.30
2018-09-14T00:24:06.825Z,28.73
2018-09-14T00:26:34.392Z,28.00
2018-09-14T00:29:02.012Z,25.60
2018-09-14T00:31:29.688Z,28.77
2018-09-14T00:33:57.251Z,28.57
2018-09-14T00:36:24.831Z,29.10
2018-09-14T00:38:52.422Z,28.97
2018-09-14T00:41:19.981Z,30.00
2018-09-14T00:43:47.539Z,30.60
2018-09-14T00:46:15.085Z,30.40
2018-09-14T00:48:42.672Z,31.00
2018-09-14T00:51:10.252Z,30.80
2018-09-14T00:53:37.814Z,32.60
2018-09-14T00:56:05.556Z,30.50
2018-09-14T00:58:33.380Z,30.27
2018-09-14T01:01:00.944Z,29.60
2018-09-14T01:03:28.480Z,29.03
2018-09-14T01:05:56.090Z,30.67
2018-09-14T01:08:23.671Z,29.97
2018-09-14T01:10:51.238Z,32.00
2018-09-14T01:13:18.831Z,29.97
2018-09-14T01:15:46.439Z,29.50
2018-09-14T01:18:13.985Z,29.43
2018-09-14T01:20:41.550Z,29.70
2018-09-14T01:23:09.108Z,29.30
2018-09-14T01:25:36.697Z,31.50
2018-09-14T01:28:04.247Z,32.60
2018-09-14T01:30:32.096Z,34.00
2018-09-14T01:32:59.657Z,36.27
2018-09-14T01:35:32.956Z,34.37
2018-09-14T01:38:00.523Z,36.53
2018-09-14T01:40:28.120Z,38.30
2018-09-14T01:42:55.737Z,38.20
2018-09-14T01:45:23.340Z,34.87
2018-09-14T01:47:50.945Z,40.50
2018-09-14T01:50:18.511Z,41.90
2018-09-14T01:52:46.171Z,40.60
2018-09-14T01:55:13.720Z,41.30
2018-09-14T01:57:41.258Z,37.80
2018-09-14T02:00:08.963Z,36.10
2018-09-14T02:02:36.641Z,33.57
2018-09-14T02:05:04.659Z,30.63
2018-09-14T02:07:32.249Z,30.50
2018-09-14T02:09:59.820Z,31.93
2018-09-14T02:12:27.384Z,28.27
2018-09-14T02:14:55.028Z,27.23
2018-09-14T02:17:22.601Z,26.70
2018-09-14T02:19:50.185Z,27.20
2018-09-14T02:22:17.737Z,26.40
2018-09-14T02:24:45.300Z,28.97
2018-09-14T02:27:12.896Z,29.10
2018-09-14T02:29:40.554Z,27.57
2018-09-14T02:32:08.126Z,31.30
2018-09-14T02:34:35.668Z,32.77
2018-09-14T02:37:03.658Z,35.00
2018-09-14T02:39:31.554Z,38.00
2018-09-14T02:41:59.113Z,39.00
2018-09-14T02:44:26.663Z,41.07
2018-09-14T02:46:54.284Z,41.40
2018-09-14T02:49:21.849Z,41.70
2018-09-14T02:51:49.453Z,41.07
2018-09-14T02:54:17.079Z,41.07
2018-09-14T02:56:44.746Z,40.10
2018-09-14T02:59:12.385Z,42.10
2018-09-14T03:01:40.302Z,44.23
2018-09-14T03:04:07.957Z,41.27
2018-09-14T03:06:35.639Z,41.57
2018-09-14T03:09:04.186Z,41.97
2018-09-14T03:11:31.933Z,40.10
2018-09-14T03:13:59.585Z,41.20
2018-09-14T03:16:27.165Z,40.53
2018-09-14T03:18:54.772Z,38.87
2018-09-14T03:21:22.332Z,40.37
2018-09-14T03:23:49.886Z,42.27
2018-09-14T03:26:17.437Z,39.60
2018-09-14T03:28:45.089Z,39.90
2018-09-14T03:31:12.708Z,43.97
2018-09-14T03:33:40.264Z,43.10
2018-09-14T03:36:07.824Z,43.67
2018-09-14T03:38:35.407Z,44.43
2018-09-14T03:41:02.989Z,42.10
2018-09-14T03:43:30.585Z,44.57
2018-09-14T03:45:58.165Z,40.60
2018-09-14T03:48:25.772Z,43.70
2018-09-14T03:50:53.413Z,43.03
2018-09-14T03:53:20.990Z,40.90
2018-09-14T03:55:48.662Z,41.80
2018-09-14T03:58:16.353Z,42.83
2018-09-14T04:00:44.000Z,40.97
2018-09-14T04:03:11.540Z,44.20
2018-09-14T04:05:39.186Z,21.47
2018-09-14T04:08:06.884Z,39.60
2018-09-14T04:10:34.464Z,38.30
2018-09-14T04:13:02.088Z,36.70
2018-09-14T04:15:29.648Z,38.17
2018-09-14T04:17:57.224Z,38.30
2018-09-14T04:20:24.870Z,41.50
2018-09-14T04:22:52.463Z,40.17
2018-09-14T04:25:20.042Z,40.90
2018-09-14T04:27:47.601Z,41.23
2018-09-14T04:30:15.207Z,41.00
2018-09-14T04:32:42.771Z,40.90
2018-09-14T04:35:10.421Z,36.63
2018-09-14T04:37:37.988Z,40.27
2018-09-14T04:40:05.681Z,40.13
2018-09-14T04:42:33.254Z,39.67
2018-09-14T04:45:01.021Z,41.20
2018-09-14T04:47:28.656Z,44.30
2018-09-14T04:49:56.264Z,43.20
2018-09-14T04:52:26.426Z,40.80
2018-09-14T04:54:53.999Z,40.93
2018-09-14T04:57:21.813Z,42.77
2018-09-14T04:59:49.386Z,42.80
2018-09-14T05:02:17.040Z,39.13
2018-09-14T05:04:44.690Z,41.77
2018-09-14T05:07:12.330Z,35.87
2018-09-14T05:09:39.942Z,39.47
2018-09-14T05:12:07.515Z,42.20
2018-09-14T05:14:35.102Z,37.77
2018-09-14T05:17:02.754Z,37.90
2018-09-14T05:19:30.331Z,39.73
2018-09-14T05:21:58.006Z,38.90
2018-09-14T05:24:25.540Z,38.60
2018-09-14T05:26:53.145Z,40.93
2018-09-14T05:29:20.961Z,40.67
2018-09-14T05:31:48.756Z,42.37
2018-09-14T05:34:16.313Z,41.30
2018-09-14T05:36:43.986Z,40.03
2018-09-14T05:39:11.572Z,45.10
2018-09-14T05:41:39.186Z,43.63
2018-09-14T05:44:06.779Z,44.50
2018-09-14T05:46:34.360Z,45.50
2018-09-14T05:49:01.965Z,47.10
2018-09-14T05:51:29.549Z,42.10
2018-09-14T05:53:57.148Z,42.80
2018-09-14T05:56:25.105Z,42.57
2018-09-14T05:58:52.684Z,41.53
2018-09-14T06:01:20.775Z,41.23
2018-09-14T06:03:48.341Z,42.57
2018-09-14T06:06:15.971Z,44.83
2018-09-14T06:08:43.537Z,41.90
2018-09-14T06:11:11.120Z,42.50
2018-09-14T06:13:38.875Z,43.47
2018-09-14T06:16:06.520Z,42.53
2018-09-14T06:18:34.140Z,42.20
2018-09-14T06:21:01.769Z,43.77
2018-09-14T06:23:29.358Z,46.23
2018-09-14T06:25:56.991Z,40.60
2018-09-14T06:28:24.570Z,44.10
2018-09-14T06:30:52.137Z,41.70
2018-09-14T06:33:19.753Z,41.30
2018-09-14T06:35:47.922Z,43.20
2018-09-14T06:38:15.544Z,40.97
2018-09-14T06:40:43.151Z,43.17
2018-09-14T06:43:10.853Z,40.80
2018-09-14T06:45:38.439Z,42.50
2018-09-14T06:48:06.278Z,44.47
2018-09-14T06:50:33.949Z,38.00
2018-09-14T06:53:01.863Z,43.13
2018-09-14T06:55:29.594Z,42.60
2018-09-14T06:57:57.193Z,37.27
2018-09-14T07:00:24.975Z,41.80
2018-09-14T07:02:52.446Z,42.20
2018-09-14T07:05:20.028Z,40.20
2018-09-14T07:07:47.659Z,32.03
2018-09-14T07:10:15.248Z,33.00
2018-09-14T07:12:42.868Z,34.63
2018-09-14T07:15:10.555Z,29.50
2018-09-14T07:17:38.216Z,35.17
2018-09-14T07:20:05.856Z,27.60
2018-09-14T07:22:33.504Z,34.20
2018-09-14T07:25:01.221Z,32.47
2018-09-14T07:27:28.882Z,36.67
2018-09-14T07:29:56.528Z,34.10
2018-09-14T07:32:24.147Z,29.13
2018-09-14T07:34:51.718Z,28.80
2018-09-14T07:37:19.325Z,28.37
2018-09-14T07:39:46.987Z,32.93
2018-09-14T07:42:14.649Z,34.30
2018-09-14T07:44:42.239Z,27.77
2018-09-14T07:47:09.869Z,33.20
2018-09-14T07:49:37.631Z,26.83
2018-09-14T07:52:05.548Z,35.47
2018-09-14T07:54:33.282Z,37.73
2018-09-14T07:57:00.871Z,39.57
2018-09-14T07:59:28.484Z,38.73
2018-09-14T08:01:56.083Z,37.70
2018-09-14T08:04:23.684Z,40.97
2018-09-14T08:06:51.299Z,39.17
2018-09-14T08:09:18.925Z,38.67
2018-09-14T08:11:46.521Z,38.00
2018-09-14T08:14:14.090Z,37.53
2018-09-14T08:16:41.721Z,37.57
2018-09-14T08:19:09.258Z,39.00
2018-09-14T08:21:37.032Z,38.40
2018-09-14T08:24:04.703Z,40.57
2018-09-14T08:26:32.489Z,39.20
2018-09-14T08:29:00.153Z,37.20
2018-09-14T08:31:27.735Z,38.20
2018-09-14T08:33:55.704Z,39.40
2018-09-14T08:36:23.340Z,36.90
2018-09-14T08:38:50.988Z,36.90
2018-09-14T08:41:18.696Z,38.67
2018-09-14T08:43:46.380Z,38.93
2018-09-14T08:46:13.961Z,36.23
2018-09-14T08:48:41.544Z,40.37
2018-09-14T08:51:09.308Z,38.00
2018-09-14T08:53:37.088Z,36.40
2018-09-14T08:56:04.707Z,37.37
2018-09-14T08:58:32.468Z,36.63
2018-09-14T09:01:00.140Z,38.53
2018-09-14T09:03:27.751Z,38.10
2018-09-14T09:05:55.904Z,35.57
2018-09-14T09:08:23.465Z,37.40
2018-09-14T09:10:51.045Z,35.83
2018-09-14T09:13:18.648Z,31.87
2018-09-14T09:15:46.197Z,33.50
2018-09-14T09:18:13.801Z,32.50
2018-09-14T09:20:41.432Z,35.23
2018-09-14T09:23:09.226Z,31.90
2018-09-14T09:25:36.848Z,33.80
2018-09-14T09:28:04.472Z,30.90
2018-09-14T09:30:32.163Z,32.67
2018-09-14T09:32:59.727Z,34.23
2018-09-14T09:35:27.344Z,33.80
2018-09-14T09:37:54.892Z,30.60
2018-09-14T09:40:22.454Z,31.40
2018-09-14T09:42:50.017Z,32.57
2018-09-14T09:45:17.641Z,31.93
2018-09-14T09:47:45.206Z,29.57
2018-09-14T09:50:12.857Z,30.87
2018-09-14T09:52:40.425Z,33.97
2018-09-14T09:55:08.055Z,33.53
2018-09-14T09:57:35.679Z,32.93
2018-09-14T10:00:03.344Z,30.93
2018-09-14T10:02:35.980Z,30.90
2018-09-14T10:05:09.357Z,35.63
2018-09-14T10:07:36.993Z,31.53
2018-09-14T10:10:04.604Z,34.43
2018-09-14T10:12:32.267Z,32.30
2018-09-14T10:14:59.843Z,33.57
2018-09-14T10:17:27.408Z,36.40
2018-09-14T10:19:55.019Z,33.87
2018-09-14T10:22:22.611Z,35.60
2018-09-14T10:24:50.193Z,33.57
2018-09-14T10:27:17.741Z,34.13
2018-09-14T10:29:45.330Z,33.50
2018-09-14T10:32:12.879Z,34.73
2018-09-14T10:34:40.508Z,34.13
2018-09-14T10:37:08.139Z,33.80
2018-09-14T10:39:35.748Z,34.70
2018-09-14T10:42:03.449Z,26.37
2018-09-14T10:44:31.077Z,25.70
2018-09-14T10:46:58.680Z,23.90
2018-09-14T10:49:26.312Z,30.50
2018-09-14T10:51:53.989Z,30.43
2018-09-14T10:54:21.728Z,28.63
2018-09-14T10:56:49.309Z,24.90
2018-09-14T10:59:16.874Z,30.07
2018-09-14T11:01:44.511Z,25.97
2018-09-14T11:04:12.144Z,26.87
2018-09-14T11:06:39.794Z,29.57
2018-09-14T11:09:09.882Z,28.63
2018-09-14T11:11:37.659Z,25.90
2018-09-14T11:14:05.318Z,27.00
2018-09-14T11:16:32.984Z,25.50
2018-09-14T11:19:00.820Z,26.27
2018-09-14T11:21:28.461Z,25.97
2018-09-14T11:23:56.111Z,22.60
2018-09-14T11:26:23.687Z,29.13
2018-09-14T11:28:51.260Z,19.87
2018-09-14T11:31:23.361Z,20.03
2018-09-14T11:33:51.034Z,21.93
2018-09-14T11:36:18.865Z,25.57
2018-09-14T11:38:46.539Z,21.40
2018-09-14T11:41:14.183Z,27.90
2018-09-14T11:43:41.780Z,20.70
2018-09-14T11:46:09.435Z,26.47
2018-09-14T11:48:36.998Z,19.80
2018-09-14T11:51:04.633Z,18.03
2018-09-14T11:53:32.279Z,17.90
2018-09-14T11:55:59.919Z,18.73
2018-09-14T11:58:27.613Z,18.13
2018-09-14T12:00:56.066Z,16.90
2018-09-14T12:03:24.239Z,19.50
2018-09-14T12:05:51.855Z,21.03
2018-09-14T12:08:19.992Z,19.97
2018-09-14T12:10:47.927Z,17.67
2018-09-14T12:13:16.039Z,19.23
2018-09-14T12:15:43.710Z,24.70
2018-09-14T12:18:11.381Z,22.50
2018-09-14T12:20:39.032Z,20.27
2018-09-14T12:23:06.670Z,16.40
2018-09-14T12:25:36.920Z,20.17
2018-09-14T12:28:04.923Z,18.07
2018-09-14T12:30:32.775Z,17.07
2018-09-14T12:33:03.462Z,24.87
2018-09-14T12:35:31.217Z,23.03
2018-09-14T12:37:58.688Z,23.00
2018-09-14T12:40:26.324Z,21.80
2018-09-14T12:42:53.908Z,26.37
2018-09-14T12:45:21.538Z,18.20
2018-09-14T12:47:49.145Z,21.70
2018-09-14T12:50:16.773Z,25.93
2018-09-14T12:52:44.514Z,21.60
2018-09-14T12:55:12.239Z,22.77
2018-09-14T12:57:39.863Z,19.13
2018-09-14T13:00:08.005Z,23.63
2018-09-14T13:02:35.887Z,26.07
2018-09-14T13:05:03.611Z,22.00
2018-09-14T13:07:31.253Z,22.80
2018-09-14T13:09:58.812Z,19.07
2018-09-14T13:12:26.489Z,17.17
2018-09-14T13:14:54.103Z,19.47
2018-09-14T13:17:21.734Z,21.13
2018-09-14T13:19:49.333Z,21.23
2018-09-14T13:22:16.949Z,17.93
2018-09-14T13:24:44.564Z,19.13
2018-09-14T13:27:12.245Z,22.60
2018-09-14T13:29:39.832Z,17.87
2018-09-14T13:32:07.403Z,19.63
2018-09-14T13:34:35.009Z,18.67
2018-09-14T13:37:02.677Z,14.83
2018-09-14T13:39:30.303Z,20.00
2018-09-14T13:41:57.914Z,21.97
2018-09-14T13:44:25.515Z,15.63
2018-09-14T13:46:53.226Z,17.93
2018-09-14T13:49:20.795Z,12.93
2018-09-14T13:51:48.405Z,16.33
2018-09-14T13:54:22.247Z,16.37
2018-09-14T13:56:50.107Z,20.07
2018-09-14T13:59:17.683Z,17.50
2018-09-14T14:01:53.067Z,16.00
2018-09-14T14:04:20.764Z,12.43
2018-09-14T14:06:53.729Z,13.53
2018-09-14T14:09:21.381Z,13.00
2018-09-14T14:11:49.094Z,9.80
2018-09-14T14:14:16.763Z,14.43
2018-09-14T14:16:44.399Z,18.73
2018-09-14T14:19:12.312Z,18.87
2018-09-14T14:21:40.128Z,18.50
2018-09-14T14:24:07.732Z,16.67
2018-09-14T14:26:36.956Z,25.40
2018-09-14T14:29:04.630Z,20.23
2018-09-14T14:31:32.346Z,17.23
2018-09-14T14:33:59.965Z,18.70
2018-09-14T14:36:27.586Z,21.33
2018-09-14T14:38:55.260Z,14.50
2018-09-14T14:41:23.012Z,14.23
2018-09-14T14:43:50.625Z,13.80
2018-09-14T14:46:18.224Z,11.80
2018-09-14T14:48:45.809Z,14.07
2018-09-14T14:51:13.508Z,12.70
2018-09-14T14:53:41.148Z,15.57
2018-09-14T14:56:08.774Z,14.70
2018-09-14T14:58:36.509Z,19.27
2018-09-14T15:01:04.237Z,16.10
2018-09-14T15:03:31.903Z,16.53
2018-09-14T15:05:59.527Z,19.70
2018-09-14T15:08:27.542Z,16.07
2018-09-14T15:10:55.215Z,13.57
2018-09-14T15:13:22.859Z,12.80
2018-09-14T15:15:50.463Z,14.70
2018-09-14T15:18:18.091Z,13.00
2018-09-14T15:20:46.169Z,16.10
2018-09-14T15:23:13.786Z,11.70
2018-09-14T15:25:41.386Z,14.03
2018-09-14T15:28:09.001Z,11.50
2018-09-14T15:30:36.579Z,12.10
2018-09-14T15:33:04.096Z,12.40
2018-09-14T15:35:31.759Z,11.10
2018-09-14T15:37:59.416Z,12.10
2018-09-14T15:40:27.018Z,11.60
2018-09-14T15:42:54.589Z,10.60
2018-09-14T15:45:22.227Z,10.17
2018-09-14T15:47:49.822Z,12.30
2018-09-14T15:50:17.461Z,11.10
2018-09-14T15:52:45.061Z,11.03
2018-09-14T15:55:12.668Z,12.47
2018-09-14T15:57:40.393Z,12.60
2018-09-14T16:00:07.955Z,12.07
2018-09-14T16:02:35.581Z,13.03
2018-09-14T16:05:03.217Z,9.33
2018-09-14T16:07:30.858Z,10.63
2018-09-14T16:09:58.518Z,13.80
2018-09-14T16:12:26.155Z,13.00
2018-09-14T16:14:53.773Z,8.90
2018-09-14T16:17:21.381Z,10.10
2018-09-14T16:19:49.189Z,9.83
2018-09-14T16:22:16.806Z,11.10
2018-09-14T16:24:44.424Z,9.63
2018-09-14T16:27:12.085Z,15.13
2018-09-14T16:29:39.756Z,12.63
2018-09-14T16:32:07.346Z,13.03
2018-09-14T16:34:35.036Z,13.80
2018-09-14T16:37:02.730Z,11.00
2018-09-14T16:39:37.169Z,13.90
2018-09-14T16:42:04.770Z,12.13
2018-09-14T16:44:32.542Z,9.20
2018-09-14T16:47:00.190Z,11.17
2018-09-14T16:49:27.765Z,9.20
2018-09-14T16:51:55.913Z,13.17
2018-09-14T16:54:23.528Z,8.37
2018-09-14T16:56:51.329Z,11.30
2018-09-14T16:59:18.938Z,11.80
2018-09-14T17:01:46.546Z,11.20
2018-09-14T17:04:14.145Z,11.43
2018-09-14T17:06:41.836Z,11.83
2018-09-14T17:09:09.872Z,11.17
2018-09-14T17:11:42.643Z,14.63
2018-09-14T17:14:10.299Z,11.80
2018-09-14T17:16:38.148Z,10.07
2018-09-14T17:19:05.919Z,9.53
2018-09-14T17:21:33.715Z,9.37
2018-09-14T17:24:01.212Z,10.10
2018-09-14T17:26:29.391Z,11.40
2018-09-14T17:28:56.977Z,11.10
2018-09-14T17:31:27.929Z,10.97
2018-09-14T17:34:04.693Z,12.40
2018-09-14T17:36:32.364Z,11.90
2018-09-14T17:39:00.039Z,12.93
2018-09-14T17:41:27.587Z,11.43
2018-09-14T17:43:55.217Z,66.07
2018-09-14T17:46:22.863Z,12.23
2018-09-14T17:48:50.564Z,10.10
2018-09-14T17:51:18.215Z,12.53
2018-09-14T17:53:45.833Z,11.80
2018-09-14T17:56:13.512Z,11.63
2018-09-14T17:58:41.105Z,10.87
2018-09-14T18:01:08.737Z,11.50
2018-09-14T18:03:36.406Z,11.57
2018-09-14T18:06:04.116Z,10.00
2018-09-14T18:08:31.752Z,10.63
2018-09-14T18:10:59.447Z,11.63
2018-09-14T18:13:27.034Z,13.53
2018-09-14T18:15:54.738Z,13.57
2018-09-14T18:18:22.315Z,14.10
2018-09-14T18:20:49.908Z,14.30
2018-09-14T18:23:17.517Z,16.37
2018-09-14T18:25:45.107Z,13.00
2018-09-14T18:28:12.750Z,15.50
2018-09-14T18:30:40.440Z,13.83
2018-09-14T18:33:08.059Z,15.83
2018-09-14T18:35:35.710Z,16.70
2018-09-14T18:38:03.365Z,16.87
2018-09-14T18:40:31.067Z,41.30
2018-09-14T18:42:58.814Z,25.40
2018-09-14T18:45:26.391Z,16.00
2018-09-14T18:47:53.992Z,15.13
2018-09-14T18:50:21.624Z,17.23
2018-09-14T18:52:49.265Z,15.00
2018-09-14T18:55:16.964Z,15.77
2018-09-14T18:57:44.532Z,14.67
2018-09-14T19:00:12.333Z,15.03
2018-09-14T19:02:39.953Z,12.97
2018-09-14T19:05:07.553Z,15.07
2018-09-14T19:07:35.180Z,13.10
2018-09-14T19:10:02.879Z,12.47
2018-09-14T19:12:30.504Z,13.97
2018-09-14T19:14:58.132Z,13.47
2018-09-14T19:17:25.730Z,14.40
2018-09-14T19:19:53.342Z,13.00
2018-09-14T19:22:20.985Z,14.43
2018-09-14T19:24:48.689Z,13.30
2018-09-14T19:27:16.385Z,15.00
2018-09-14T19:29:43.998Z,15.20
2018-09-14T19:32:11.608Z,15.13
2018-09-14T19:34:39.210Z,16.73
2018-09-14T19:37:22.674Z,17.60
2018-09-14T19:39:50.253Z,16.57
2018-09-14T19:42:17.865Z,16.50
2018-09-14T19:44:45.560Z,15.93
2018-09-14T19:47:13.180Z,15.20
2018-09-14T19:49:41.006Z,15.93
2018-09-14T19:52:08.651Z,15.80
2018-09-14T19:54:36.334Z,16.00
2018-09-14T19:57:03.997Z,15.30
2018-09-14T19:59:31.602Z,14.30
2018-09-14T20:01:59.213Z,14.23
2018-09-14T20:04:26.790Z,16.17
2018-09-14T20:06:54.385Z,16.37
2018-09-14T20:09:22.078Z,14.47
2018-09-14T20:11:49.675Z,14.60
2018-09-14T20:14:17.262Z,16.90
2018-09-14T20:16:44.901Z,16.87
2018-09-14T20:19:12.510Z,16.47
2018-09-14T20:21:40.130Z,17.33
2018-09-14T20:24:07.777Z,14.40
2018-09-14T20:26:35.365Z,15.67
2018-09-14T20:29:03.058Z,15.37
2018-09-14T20:31:30.712Z,55.83
2018-09-14T20:33:58.391Z,18.30
2018-09-14T20:36:26.066Z,16.90
2018-09-14T20:38:53.753Z,14.67
2018-09-14T20:41:21.340Z,17.40
2018-09-14T20:43:49.003Z,16.53
2018-09-14T20:46:16.597Z,15.57
2018-09-14T20:48:44.195Z,15.10
2018-09-14T20:51:12.088Z,17.13
2018-09-14T20:53:39.646Z,16.00
2018-09-14T20:56:07.928Z,16.33
2018-09-14T20:58:35.568Z,15.97
2018-09-14T21:01:03.225Z,17.40
2018-09-14T21:03:30.811Z,14.93
2018-09-14T21:05:58.496Z,15.60
2018-09-14T21:08:26.043Z,15.93
2018-09-14T21:10:53.708Z,15.90
2018-09-14T21:13:21.365Z,17.57
2018-09-14T21:15:49.186Z,17.17
2018-09-14T21:18:16.877Z,14.90
2018-09-14T21:20:44.485Z,15.67
2018-09-14T21:23:12.197Z,16.33
2018-09-14T21:25:39.812Z,16.07
2018-09-14T21:28:07.426Z,15.70
2018-09-14T21:30:35.137Z,15.47
2018-09-14T21:33:02.717Z,16.50
2018-09-14T21:35:30.276Z,16.33
2018-09-14T21:37:57.929Z,15.00
2018-09-14T21:40:25.646Z,15.50
2018-09-14T21:42:53.242Z,15.90
2018-09-14T21:45:20.868Z,15.87
2018-09-14T21:47:48.430Z,14.77
2018-09-14T21:50:16.069Z,14.33
2018-09-14T21:52:43.658Z,14.67
2018-09-14T21:55:11.328Z,14.03
2018-09-14T21:57:38.981Z,15.73
2018-09-14T22:00:13.526Z,16.30
2018-09-14T22:02:41.138Z,16.00
2018-09-14T22:05:08.784Z,13.97
2018-09-14T22:07:36.367Z,14.23
2018-09-14T22:10:04.267Z,15.00
2018-09-14T22:12:31.985Z,13.73
2018-09-14T22:14:59.541Z,15.67
2018-09-14T22:17:27.204Z,14.23
2018-09-14T22:19:54.837Z,14.80
2018-09-14T22:22:22.454Z,13.10
2018-09-14T22:24:50.083Z,14.63
2018-09-14T22:27:17.655Z,14.30
2018-09-14T22:29:45.308Z,12.47
2018-09-14T22:32:12.906Z,13.40
2018-09-14T22:34:40.512Z,13.00
2018-09-14T22:37:08.104Z,14.60
2018-09-14T22:39:35.708Z,14.50
2018-09-14T22:42:03.344Z,12.77
2018-09-14T22:44:30.896Z,14.03
2018-09-14T22:46:58.506Z,11.93
2018-09-14T22:49:26.075Z,14.53
2018-09-14T22:51:53.683Z,12.37
2018-09-14T22:54:21.267Z,13.03
2018-09-14T22:56:48.932Z,13.50
2018-09-14T22:59:16.534Z,13.10
2018-09-14T23:01:44.247Z,12.57
2018-09-14T23:04:11.837Z,14.43
2018-09-14T23:06:39.429Z,14.37
2018-09-14T23:09:07.565Z,15.50
2018-09-14T23:11:35.263Z,16.50
2018-09-14T23:14:02.909Z,15.30
2018-09-14T23:16:30.481Z,15.17
2018-09-14T23:18:58.067Z,15.43
2018-09-14T23:21:25.629Z,14.10
2018-09-14T23:23:53.206Z,13.70
2018-09-14T23:26:22.820Z,13.47
2018-09-14T23:28:50.495Z,12.70
2018-09-14T23:31:18.090Z,13.53
2018-09-14T23:33:45.680Z,12.77
2018-09-14T23:36:13.256Z,12.33
2018-09-14T23:38:40.843Z,12.33
2018-09-14T23:41:08.417Z,14.50
2018-09-14T23:43:36.067Z,13.13
2018-09-14T23:46:03.671Z,13.83
2018-09-14T23:48:31.299Z,16.07
2018-09-14T23:50:58.873Z,14.30
2018-09-14T23:53:26.477Z,15.00
2018-09-14T23:55:54.100Z,14.00
2018-09-14T23:58:21.668Z,13.43
